Station: Tasman Island  

  Atmospheric Gas Attenuation - ITU Rec 676-11   ----------------- dB/100km -----------------
Date Time Temp RH % AH g/m3 Dew Point Wind Direction Speed kph Gust kph Barometer mB Rainfall Since 9am 24GHz 47GHz 76GHz 122GHz 134GHz 241GHz
08/05 03:20 8.9 85 7.45 6.6 39 67 1004.6 6.6 17.4 25.1 37.1 97.4 88.3 302.6
08/05 03:10 8.6 90 7.74 7 33 59 1004.6 6.6 18.0 25.7 38.5 101.0 92.6 317.5
08/05 03:00 9.4 81 7.33 6.3 35 82 1004.3 6.2 17.1 24.7 36.4 95.5 86.1 295.0
08/05 02:50 9.3 85 7.64 6.9 33 63 1004.2 6.2 17.7 25.3 37.7 99.0 90.4 309.9
08/05 02:40 9 88 7.76 7.1 39 63 1004.3 6.2 18.0 25.6 38.3 100.7 92.4 316.8
08/05 02:30 9.8 86 7.98 7.6 33 83 1003.9 6.2 18.5 25.7 38.8 102.0 94.3 323.8
08/05 02:20 9.2 82 7.32 6.3 35 52 1004.1 6 17.1 24.8 36.4 95.6 86.2 295.2
08/05 02:10 8.9 90 7.89 7.3 39 59 1003.8 6 18.3 25.8 38.9 102.2 94.2 323.3
08/05 02:00 8.7 90 7.79 7.2 50 98 1003.8 6 18.1 25.7 38.6 101.3 93.1 319.3
08/05 01:50 9.6 87 7.97 7.5 37 48 1003.9 6 18.4 25.7 38.9 102.2 94.4 324.2
08/05 01:40 9.4 87 7.87 7.3 44 69 1003.7 6 18.2 25.6 38.6 101.3 93.3 320.2
08/05 01:30 9.8 83 7.7 7.1 37 83 1003.9 6 17.9 25.2 37.7 98.9 90.6 310.6
08/05 01:20 10.1 79 7.47 6.6 37 57 1003.7 6 17.3 24.8 36.6 96.1 87.1 298.7
08/05 01:10 10.1 81 7.66 7 13 32 1003.8 6 17.8 25.1 37.4 98.1 89.7 307.5
08/05 01:00 9.7 82 7.56 6.8 28 54 1003.6 6 17.6 25.0 37.2 97.5 88.8 304.4
08/05 00:50 9.7 88 8.11 7.8 22 35 1003.6 6 18.7 25.9 39.4 103.5 96.2 330.4
08/05 00:40 9.7 88 8.11 7.9 37 63 1003.4 6 18.7 25.9 39.4 103.5 96.2 330.3
08/05 00:30 9.6 91 8.34 8.2 32 65 1003.3 6 19.2 26.3 40.4 106.2 99.5 341.8
08/05 00:20 9.3 88 7.91 7.5 26 48 1003 6 18.3 25.7 38.8 101.8 93.9 322.4
08/05 00:10 9.8 90 8.35 8.2 33 54 1002.9 5.8 19.3 26.3 40.3 106.0 99.3 341.2
08/05 00:00 9.9 93 8.69 8.8 30 63 1002.9 5.8 20.0 26.8 41.7 109.7 103.9 357.2
07/05 23:50 10.3 88 8.43 8.4 33 91 1002.5 5.8 19.4 26.2 40.4 106.2 99.7 342.8
07/05 23:40 10.1 91 8.61 8.7 28 50 1002.7 5.4 19.8 26.6 41.3 108.5 102.5 352.4
07/05 23:30 10 94 8.83 9.1 32 78 1002.7 5.4 20.3 27.0 42.2 111.1 105.7 363.5
07/05 23:20 9.7 93 8.58 8.7 32 57 1002.7 5.4 19.8 26.7 41.3 108.7 102.6 352.7
07/05 23:10 10.3 93 8.91 9.2 28 59 1002.5 5.2 20.4 27.0 42.4 111.5 106.3 365.9
07/05 23:00 10.1 95 8.99 9.3 32 72 1002.6 5.2 20.6 27.2 42.9 112.7 107.8 370.8
07/05 22:50 10 96 9.02 9.4 28 50 1002.7 5.2 20.7 27.3 43.0 113.2 108.3 372.8
07/05 22:40 9.7 96 8.85 9.1 17 32 1003 5.2 20.3 27.1 42.5 111.8 106.4 366.0
07/05 22:30 9.4 96 8.69 8.8 26 65 1003.2 5 20.0 27.0 42.0 110.4 104.6 359.6
07/05 22:20 8.8 95 8.27 8 19 41 1003.3 5 19.1 26.4 40.5 106.5 99.5 341.9
07/05 22:10 8.2 94 7.88 7.3 17 37 1003.3 4.8 18.3 26.0 39.2 102.9 94.9 325.6
07/05 22:00 8.3 92 7.76 7.1 15 35 1003.4 4.4 18.0 25.7 38.6 101.5 93.1 319.4
07/05 21:50 8.5 91 7.77 7.1 24 44 1003.2 4.2 18.1 25.7 38.6 101.3 93.0 319.0
07/05 21:40 8.3 89 7.5 6.6 19 41 1003.4 4.2 17.5 25.3 37.6 98.6 89.6 307.0
07/05 21:30 8.3 88 7.42 6.4 32 70 1003.1 4.2 17.3 25.2 37.2 97.7 88.5 303.1
07/05 21:20 8.1 88 7.33 6.2 28 54 1003.4 3.8 17.1 25.1 37.0 97.0 87.5 299.7
07/05 21:10 8.1 85 7.08 5.7 26 44 1003.2 3.4 16.6 24.7 35.9 94.2 84.1 287.9
07/05 21:00 8.1 83 6.91 5.4 39 65 1003.2 3 16.2 24.4 35.2 92.4 81.9 279.9
07/05 20:50 8.4 78 6.62 4.8 41 52 1003.2 3 15.6 23.8 34.0 89.0 77.7 265.5
07/05 20:40 8.3 78 6.58 4.7 46 63 1003.2 3 15.5 23.8 33.8 88.6 77.3 264.0
07/05 20:30 7.7 78 6.33 4.1 46 70 1003.2 3 15.0 23.6 33.1 86.7 74.6 254.5
07/05 20:20 7.9 77 6.33 4.1 50 59 1003.6 3 15.0 23.5 33.0 86.5 74.5 254.0
07/05 20:10 7.5 78 6.25 3.9 50 67 1003.9 3 14.8 23.5 32.9 86.1 73.8 251.6
07/05 20:00 7.4 76 6.05 3.5 37 57 1004.3 3 14.4 23.2 32.2 84.1 71.3 242.9
07/05 19:50 7.2 74 5.81 3 32 39 1004.6 3 13.9 22.9 31.3 81.9 68.4 232.7
07/05 19:40 7.1 78 6.09 3.5 37 48 1005 3 14.5 23.4 32.5 85.0 72.2 245.8
07/05 19:30 7 76 5.89 3.1 35 57 1005.5 2.8 14.1 23.1 31.7 83.0 69.7 237.1
07/05 19:20 7.2 73 5.73 2.8 33 43 1005.5 2.8 13.7 22.8 31.0 81.1 67.5 229.3
07/05 19:10 7 74 5.74 2.7 24 33 1005.8 2.8 13.7 22.9 31.2 81.5 67.8 230.4
07/05 19:00 7 72 5.58 2.3 33 56 1006 2.8 13.4 22.7 30.6 79.8 65.7 223.2
07/05 18:50 7.1 72 5.62 2.4 32 41 1006.1 2.8 13.5 22.7 30.7 80.1 66.2 224.7
07/05 18:40 6.9 74 5.7 2.7 37 44 1006.3 2.8 13.7 22.9 31.1 81.2 67.4 229.0
07/05 18:30 6.8 74 5.66 2.5 33 50 1006.5 2.8 13.6 22.9 31.0 80.9 67.0 227.5
07/05 18:20 6.8 74 5.66 2.5 37 46 1006.6 2.8 13.6 22.9 31.0 80.9 67.0 227.5
07/05 18:10 6.4 78 5.82 2.8 32 37 1006.9 2.8 13.9 23.2 31.8 83.0 69.4 236.0
07/05 18:00 6.5 77 5.78 2.8 33 46 1007 2.8 13.8 23.1 31.6 82.5 68.8 233.9
07/05 17:50 6.7 73 5.55 2.2 37 44 1007.3 2.8 13.3 22.7 30.6 79.9 65.7 223.0
07/05 17:40 6.9 72 5.55 2.2 33 41 1007.5 2.6 13.3 22.7 30.5 79.7 65.5 222.4
07/05 17:30 6.9 70 5.39 1.8 26 41 1007.7 2.6 13.0 22.4 29.9 78.1 63.5 215.3
07/05 17:20 7.2 69 5.42 1.9 24 30 1007.8 2.6 13.1 22.4 29.9 78.1 63.6 215.8
07/05 17:10 7.2 69 5.42 1.9 32 39 1007.9 2.6 13.1 22.4 29.9 78.1 63.6 215.9
07/05 17:00 7.1 71 5.54 2.2 26 46 1008.1 2.6 13.3 22.6 30.5 79.5 65.3 221.5
07/05 16:50 7.3 72 5.69 2.6 20 33 1008.3 2.6 13.6 22.8 31.0 80.9 67.0 227.7
07/05 16:40 6.9 71 5.47 2 17 28 1008.5 2.6 13.2 22.6 30.3 79.0 64.6 219.0
07/05 16:30 7 72 5.58 2.3 13 35 1008.6 2.6 13.4 22.8 30.7 80.1 65.9 223.7
07/05 16:20 7 72 5.58 2.3 13 22 1008.8 2.6 13.4 22.8 30.7 80.1 65.9 223.8
07/05 16:10 7 71 5.5 2.1 15 20 1008.9 2.6 13.2 22.6 30.4 79.3 64.9 220.2
07/05 16:00 6.9 72 5.55 2.2 15 46 1009 2.6 13.3 22.7 30.6 79.9 65.6 222.7
07/05 15:50 6.8 72 5.51 2.1 15 33 1009 2.6 13.3 22.7 30.5 79.6 65.2 221.2
07/05 15:40 6.8 72 5.51 2.1 13 41 1009.2 2.6 13.3 22.7 30.5 79.6 65.2 221.2
07/05 15:30 6.9 72 5.55 2.2 13 35 1009.3 2.6 13.3 22.8 30.6 79.9 65.6 222.8
07/05 15:20 7 72 5.58 2.3 11 24 1009.5 2.6 13.4 22.8 30.7 80.1 65.9 223.9
07/05 15:10 6.9 70 5.39 1.8 9 19 1009.5 2.6 13.0 22.5 30.0 78.3 63.6 215.6
07/05 15:00 6.8 69 5.28 1.5 13 44 1009.5 2.6 12.8 22.4 29.6 77.2 62.3 211.0
07/05 14:50 7 68 5.27 1.5 9 22 1009.7 2.6 12.7 22.3 29.5 77.0 62.0 210.1
07/05 14:40 7 71 5.5 2.1 11 20 1009.8 2.6 13.2 22.7 30.4 79.3 64.9 220.4
07/05 14:30 7 68 5.27 1.5 13 41 1010 2.6 12.7 22.3 29.5 77.0 62.0 210.1
07/05 14:20 7.1 69 5.38 1.8 6 15 1010.1 2.6 13.0 22.5 29.9 78.0 63.3 214.8
07/05 14:10 7 69 5.35 1.7 26 35 1010.2 2.6 12.9 22.5 29.8 77.8 63.1 213.7
07/05 14:00 7.1 68 5.31 1.6 15 41 1010.3 2.6 12.8 22.4 29.7 77.3 62.5 211.7
07/05 13:50 7 67 5.19 1.3 17 37 1010.4 2.6 12.6 22.2 29.2 76.2 61.0 206.6
07/05 13:40 7.1 73 5.7 2.6 13 24 1010.4 2.6 13.7 23.0 31.2 81.4 67.5 229.2
07/05 13:30 7 73 5.66 2.5 9 28 1010.7 2.6 13.6 23.0 31.1 81.1 67.0 227.7
07/05 13:20 6.9 70 5.39 1.8 17 32 1010.7 2.6 13.0 22.6 30.0 78.4 63.7 215.9
07/05 13:10 7 71 5.5 2.1 13 24 1010.4 2.6 13.2 22.7 30.4 79.4 65.0 220.5
07/05 13:00 6.9 73 5.62 2.4 11 44 1010.8 2.6 13.5 22.9 30.9 80.8 66.6 226.2
07/05 12:50 6.9 74 5.7 2.6 11 30 1010.9 2.6 13.7 23.1 31.3 81.6 67.7 229.9
07/05 12:40 6.9 72 5.55 2.2 13 26 1011 2.6 13.3 22.8 30.7 80.1 65.7 223.1
07/05 12:30 6.9 74 5.7 2.6 9 26 1011.1 2.6 13.7 23.1 31.3 81.6 67.7 229.9
07/05 12:20 6.8 78 5.97 3.2 22 33 1011.3 2.6 14.2 23.5 32.4 84.6 71.3 242.6
07/05 12:10 6.7 79 6.01 3.3 7 17 1011.5 2.6 14.3 23.6 32.6 85.2 71.9 244.8
07/05 12:00 6.4 84 6.26 3.9 9 28 1011.5 2.6 14.9 24.1 33.7 88.2 75.5 257.3
07/05 11:50 5.8 86 6.16 3.6 17 39 1011.7 2.6 14.7 24.1 33.6 87.8 74.8 254.6
07/05 11:40 6.7 82 6.23 3.8 13 35 1011.4 2.6 14.8 24.0 33.5 87.5 74.8 254.9
07/05 11:30 6.5 84 6.3 4 17 48 1011.6 2.6 15.0 24.1 33.8 88.5 76.0 258.9
07/05 11:20 4.8 87 5.84 2.8 19 32 1011.9 2.6 14.0 23.9 32.7 85.4 71.4 242.8
07/05 11:10 6.9 78 6.01 3.3 17 28 1011.7 0.6 14.3 23.6 32.5 85.0 71.7 244.2
07/05 11:00 6.8 81 6.2 3.8 11 37 1011.8 0.2 14.7 23.9 33.3 87.1 74.3 253.3
07/05 10:50 7.2 78 6.13 3.6 9 19 1011.9 0.2 14.6 23.7 32.9 85.9 73.1 248.8

Last Refresh: 08-May-2026 03:01:46

Bureau of Meteorology